Aviation Digital Data Service (ADDS)

Output produced by TAFs form (0746 UTC 29 May 2017)
found at http://www.aviationweather.gov/adds/tafs/
 
METAR text: RJDT 290700Z 25005KT 200V300 CAVOK 28/11 Q1011
Conditions at: RJDT (TSUSHIMA AIRPORT, JP) observed 0700 UTC 29 May 2017
Temperature: 28.0°C (82°F)
Dewpoint: 11.0°C (52°F) [RH = 35%]
Pressure (altimeter): 29.85 inches Hg (1011.0 mb)
Winds: from the WSW (250 degrees) at 6 MPH (5 knots; 2.6 m/s)
Visibility: 6 or more miles (10+ km)
Ceiling: ceiling and visibility are OK
Clouds: unknown
Weather: no significant weather observed at this time